Time;durP1;ratioP1;P1;durP2;ratioP2;P2;SDS_P1;SDS_P2;PMS_P1;PMS_P2;Temp;Humidity;BMP_temperature;BMP_pressure;BME280_temperature;BME280_humidity;BME280_pressure;Samples;Min_cycle;Max_cycle;Signal;HPM_P1;HPM_P2
2022/04/09 00:02:19;;;;;;;;;;;4.80;99.90;;;;;;5076682;28;19950;-72
2022/04/09 00:04:44;;;;;;;;;;;4.80;99.90;;;;;;5075755;28;19924;-72
2022/04/09 00:07:11;;;;;;;;;;;4.90;99.90;;;;;;5077672;28;19920;-72
2022/04/09 00:09:36;;;;;;;;;;;5.00;99.90;;;;;;5069463;28;19983;-72
2022/04/09 00:12:02;;;;;;;;;;;5.20;99.90;;;;;;5068292;28;19924;-73
2022/04/09 00:14:28;;;;;;;;;;;5.30;99.90;;;;;;5073903;28;20299;-72
2022/04/09 00:16:53;;;;;;;;;;;5.10;99.90;;;;;;5076088;28;19917;-72
2022/04/09 00:19:19;;;;;;;;;;;5.00;99.90;;;;;;5075257;28;19917;-72
2022/04/09 00:21:46;;;;;;;;;;;4.80;99.90;;;;;;5076491;28;19913;-72
2022/04/09 00:24:12;;;;;;;;;;;4.80;99.90;;;;;;5076324;28;19920;-72
2022/04/09 00:26:38;;;;;;;;;;;4.70;99.90;;;;;;5075319;28;19920;-73
2022/04/09 00:29:03;;;;;;;;;;;4.70;99.90;;;;;;5055698;28;19921;-71
2022/04/09 00:31:29;;;;;;;;;;;4.60;99.90;;;;;;5076665;28;19970;-72
2022/04/09 00:33:55;;;;;;;;;;;4.50;99.90;;;;;;5074509;28;19920;-72
2022/04/09 00:36:20;;;;;;;;;;;4.50;99.90;;;;;;5075287;28;19916;-72
2022/04/09 00:38:46;;;;;;;;;;;4.50;99.90;;;;;;5058692;28;20011;-72
2022/04/09 00:41:11;;;;;;;;;;;4.60;99.90;;;;;;5058701;28;19966;-72
2022/04/09 00:43:40;;;;;;;;;;;4.40;99.90;;;;;;5074857;28;19927;-72
2022/04/09 00:46:06;;;;;;;;;;;4.40;99.90;;;;;;5075609;28;19912;-72
2022/04/09 00:48:36;;;;;;;;;;;4.50;99.90;;;;;;5074299;28;21529;-72
2022/04/09 00:51:02;;;;;;;;;;;4.40;99.90;;;;;;5076958;28;19913;-72
2022/04/09 00:53:31;;;;;;;;;;;4.30;99.90;;;;;;5075888;28;19921;-72
2022/04/09 00:58:55;;;;;;;;;;;4.20;99.90;;;;;;5074310;28;20013;-72
2022/04/09 01:01:26;;;;;;;;;;;4.10;99.90;;;;;;5057658;28;19913;-72
2022/04/09 01:03:52;;;;;;;;;;;4.10;99.90;;;;;;5075190;28;20219;-72
2022/04/09 01:06:17;;;;;;;;;;;4.10;99.90;;;;;;5057678;28;19912;-72
2022/04/09 01:08:43;;;;;;;;;;;4.20;99.90;;;;;;5075062;28;19916;-73
2022/04/09 01:11:09;;;;;;;;;;;4.20;99.90;;;;;;5075164;28;19924;-72
2022/04/09 01:13:35;;;;;;;;;;;4.40;99.90;;;;;;5066660;28;19927;-72
2022/04/09 01:16:02;;;;;;;;;;;4.40;99.90;;;;;;5067417;28;19995;-72
2022/04/09 01:18:28;;;;;;;;;;;4.40;99.90;;;;;;5073722;28;19960;-72
2022/04/09 01:20:58;;;;;;;;;;;4.40;99.90;;;;;;5073461;28;19921;-71
2022/04/09 01:23:24;;;;;;;;;;;4.50;99.90;;;;;;5057020;28;19916;-72
2022/04/09 01:25:50;;;;;;;;;;;4.50;99.90;;;;;;5075361;28;20192;-72
2022/04/09 01:28:16;;;;;;;;;;;4.50;99.90;;;;;;5057933;28;19962;-72
2022/04/09 01:30:42;;;;;;;;;;;4.50;99.90;;;;;;5075411;28;19912;-72
2022/04/09 01:33:13;;;;;;;;;;;4.40;99.90;;;;;;5074228;28;20349;-73
2022/04/09 01:35:38;;;;;;;;;;;4.30;99.90;;;;;;5074721;28;20003;-73
2022/04/09 01:38:04;;;;;;;;;;;4.30;99.90;;;;;;5074731;28;20362;-73
2022/04/09 01:40:29;;;;;;;;;;;4.20;99.90;;;;;;5074531;28;19912;-72
2022/04/09 01:42:55;;;;;;;;;;;4.10;99.90;;;;;;5073828;28;19986;-72
2022/04/09 01:45:21;;;;;;;;;;;4.10;99.90;;;;;;5072170;28;19923;-72
2022/04/09 01:47:46;;;;;;;;;;;4.00;99.90;;;;;;5057085;28;19921;-73
2022/04/09 01:50:12;;;;;;;;;;;4.00;99.90;;;;;;5074519;28;19928;-73
2022/04/09 01:52:37;;;;;;;;;;;4.10;99.90;;;;;;5074647;28;19917;-72
2022/04/09 01:55:03;;;;;;;;;;;4.00;99.90;;;;;;5074740;28;19912;-72
2022/04/09 01:57:29;;;;;;;;;;;4.00;99.90;;;;;;5074071;28;19916;-73
2022/04/09 01:59:55;;;;;;;;;;;3.80;99.90;;;;;;5072923;28;20011;-73
2022/04/09 02:02:20;;;;;;;;;;;3.80;99.90;;;;;;5057183;28;20460;-73
2022/04/09 02:04:46;;;;;;;;;;;3.90;99.90;;;;;;5056383;28;20405;-73
2022/04/09 02:07:12;;;;;;;;;;;4.00;99.90;;;;;;5073417;28;19927;-73
2022/04/09 02:09:37;;;;;;;;;;;4.10;99.90;;;;;;5056078;28;19952;-73
2022/04/09 02:12:03;;;;;;;;;;;4.00;99.90;;;;;;5073634;28;20065;-73
2022/04/09 02:14:29;;;;;;;;;;;3.90;99.90;;;;;;5064695;28;19924;-73
2022/04/09 02:16:54;;;;;;;;;;;3.90;99.90;;;;;;5057022;28;19924;-73
2022/04/09 02:19:20;;;;;;;;;;;3.90;99.90;;;;;;5062643;28;19919;-72
2022/04/09 02:21:45;;;;;;;;;;;4.00;99.90;;;;;;5073879;28;19995;-73
2022/04/09 02:24:11;;;;;;;;;;;4.00;99.90;;;;;;5074440;28;19948;-73
2022/04/09 02:26:36;;;;;;;;;;;4.00;99.90;;;;;;5074279;28;19920;-73
2022/04/09 02:29:02;;;;;;;;;;;4.00;99.90;;;;;;5073571;28;19978;-73
2022/04/09 02:31:27;;;;;;;;;;;4.10;99.90;;;;;;5074293;28;20277;-73
2022/04/09 02:33:54;;;;;;;;;;;4.00;99.90;;;;;;5072811;28;19916;-73
2022/04/09 02:36:20;;;;;;;;;;;4.10;99.90;;;;;;5073236;28;19970;-73
2022/04/09 02:38:46;;;;;;;;;;;4.10;99.90;;;;;;5073535;28;19938;-72
2022/04/09 02:41:11;;;;;;;;;;;4.00;99.90;;;;;;5074028;28;19912;-73
2022/04/09 02:43:37;;;;;;;;;;;4.00;99.90;;;;;;5053392;28;19912;-73
2022/04/09 02:46:03;;;;;;;;;;;3.90;99.90;;;;;;5072433;28;19916;-73
2022/04/09 02:48:29;;;;;;;;;;;4.00;99.90;;;;;;5073096;28;19917;-73
2022/04/09 02:50:54;;;;;;;;;;;4.10;99.90;;;;;;5071423;28;19917;-72
2022/04/09 02:53:20;;;;;;;;;;;4.00;99.90;;;;;;5072783;28;19916;-72
2022/04/09 02:55:46;;;;;;;;;;;4.00;99.90;;;;;;5072186;28;20359;-73
2022/04/09 02:58:11;;;;;;;;;;;4.00;99.90;;;;;;5072330;28;19916;-73
2022/04/09 03:00:37;;;;;;;;;;;4.10;99.90;;;;;;5072653;28;20211;-72
2022/04/09 03:03:03;;;;;;;;;;;4.10;99.90;;;;;;5055563;28;19965;-73
2022/04/09 03:05:28;;;;;;;;;;;4.10;99.90;;;;;;5056504;28;19916;-74
2022/04/09 03:07:54;;;;;;;;;;;4.00;99.90;;;;;;5072050;28;19917;-73
2022/04/09 03:10:19;;;;;;;;;;;4.00;99.90;;;;;;5073897;28;19932;-73
2022/04/09 03:12:45;;;;;;;;;;;4.00;99.90;;;;;;5055415;28;20024;-72
2022/04/09 03:15:11;;;;;;;;;;;3.90;99.90;;;;;;5072613;28;20299;-72
2022/04/09 03:17:37;;;;;;;;;;;4.00;99.90;;;;;;5073298;28;19912;-73
2022/04/09 03:20:03;;;;;;;;;;;4.10;99.90;;;;;;5063855;28;19921;-72
2022/04/09 03:22:30;;;;;;;;;;;4.30;99.90;;;;;;5071337;28;20450;-71
2022/04/09 03:24:59;;;;;;;;;;;4.30;99.90;;;;;;5072557;28;20213;-71
2022/04/09 03:27:25;;;;;;;;;;;4.40;99.90;;;;;;5063866;28;19923;-71
2022/04/09 03:29:51;;;;;;;;;;;4.30;99.90;;;;;;5073463;28;19966;-71
2022/04/09 03:32:17;;;;;;;;;;;4.30;99.90;;;;;;5073659;28;20318;-71
2022/04/09 03:34:42;;;;;;;;;;;4.30;99.90;;;;;;5073399;28;19927;-71
2022/04/09 03:37:08;;;;;;;;;;;4.40;99.90;;;;;;5074210;28;19916;-71
2022/04/09 03:39:35;;;;;;;;;;;4.40;99.90;;;;;;5072897;28;19920;-72
2022/04/09 03:42:00;;;;;;;;;;;4.50;99.90;;;;;;5072389;28;19921;-73
2022/04/09 03:44:26;;;;;;;;;;;4.50;99.90;;;;;;5073401;28;19912;-72
2022/04/09 03:46:58;;;;;;;;;;;4.60;99.90;;;;;;5056195;28;19982;-72
2022/04/09 03:49:24;;;;;;;;;;;4.60;99.90;;;;;;5074150;28;19919;-73
2022/04/09 03:51:49;;;;;;;;;;;4.50;99.90;;;;;;5055837;28;20222;-73
2022/04/09 03:54:15;;;;;;;;;;;4.40;99.90;;;;;;5071984;28;19920;-73
2022/04/09 03:56:41;;;;;;;;;;;4.40;99.90;;;;;;5054684;28;19913;-73
2022/04/09 03:59:06;;;;;;;;;;;4.30;99.90;;;;;;5073222;28;19958;-73
2022/04/09 04:01:32;;;;;;;;;;;4.10;99.90;;;;;;5073025;28;20280;-73
2022/04/09 04:03:57;;;;;;;;;;;4.10;99.90;;;;;;5053159;28;20011;-73
2022/04/09 04:06:23;;;;;;;;;;;4.10;99.90;;;;;;5072877;28;19913;-73
2022/04/09 04:08:49;;;;;;;;;;;4.10;99.90;;;;;;5074918;28;19927;-73
2022/04/09 04:11:14;;;;;;;;;;;4.20;99.90;;;;;;5077685;28;19931;-74
2022/04/09 04:13:40;;;;;;;;;;;4.20;99.90;;;;;;5060529;28;20325;-72
2022/04/09 04:16:06;;;;;;;;;;;4.20;99.90;;;;;;5078245;28;19908;-73
2022/04/09 04:18:31;;;;;;;;;;;4.30;99.90;;;;;;5078035;28;19917;-73
2022/04/09 04:20:57;;;;;;;;;;;4.40;99.90;;;;;;5078124;28;19931;-72
2022/04/09 04:23:23;;;;;;;;;;;4.50;99.90;;;;;;5060482;28;19966;-73
2022/04/09 04:25:49;;;;;;;;;;;4.40;99.90;;;;;;5078085;28;19909;-74
2022/04/09 04:28:15;;;;;;;;;;;4.40;99.90;;;;;;5060082;28;19913;-73
2022/04/09 04:30:40;;;;;;;;;;;4.30;99.90;;;;;;5078300;28;20384;-73
2022/04/09 04:33:06;;;;;;;;;;;4.20;99.90;;;;;;5078116;28;19912;-73
2022/04/09 04:35:42;;;;;;;;;;;4.10;99.90;;;;;;5076823;28;20276;-73
2022/04/09 04:38:07;;;;;;;;;;;4.10;99.90;;;;;;5049661;28;20224;-73
2022/04/09 04:40:33;;;;;;;;;;;4.10;99.90;;;;;;5075604;28;19917;-73
2022/04/09 04:42:58;;;;;;;;;;;4.10;99.90;;;;;;5075733;28;20004;-73
2022/04/09 04:45:24;;;;;;;;;;;4.30;99.90;;;;;;5058224;28;19924;-73
2022/04/09 04:47:49;;;;;;;;;;;4.30;99.90;;;;;;5076214;28;19920;-73
2022/04/09 04:50:15;;;;;;;;;;;4.40;99.90;;;;;;5076752;28;19913;-73
2022/04/09 04:52:41;;;;;;;;;;;4.30;99.90;;;;;;5076100;28;19960;-73
2022/04/09 04:55:08;;;;;;;;;;;4.40;99.90;;;;;;5074107;28;19956;-73
2022/04/09 04:57:44;;;;;;;;;;;4.40;99.90;;;;;;5073910;28;19916;-72
2022/04/09 05:00:10;;;;;;;;;;;4.30;99.90;;;;;;5074109;28;19926;-73
2022/04/09 05:02:35;;;;;;;;;;;4.40;99.90;;;;;;5074656;28;19912;-73
2022/04/09 05:05:01;;;;;;;;;;;4.40;99.90;;;;;;5075303;28;20275;-72
2022/04/09 05:07:56;;;;;;;;;;;4.30;99.90;;;;;;5075213;28;19912;-72
2022/04/09 05:10:23;;;;;;;;;;;4.40;99.90;;;;;;4973353;28;19968;-73
2022/04/09 05:12:48;;;;;;;;;;;4.50;99.90;;;;;;4974978;28;19918;-73
2022/04/09 05:15:15;;;;;;;;;;;4.70;99.90;;;;;;4974869;28;20305;-72
2022/04/09 05:17:40;;;;;;;;;;;4.80;99.90;;;;;;4974745;28;19922;-72
2022/04/09 05:20:07;;;;;;;;;;;4.70;99.90;;;;;;4958671;28;20050;-72
2022/04/09 05:22:33;;;;;;;;;;;4.60;99.90;;;;;;4958301;28;19962;-74
2022/04/09 05:24:58;;;;;;;;;;;4.50;99.90;;;;;;4974123;28;19954;-73
2022/04/09 05:27:25;;;;;;;;;;;4.50;99.90;;;;;;4972245;28;20005;-73
2022/04/09 05:29:50;;;;;;;;;;;4.50;99.90;;;;;;4974813;28;19949;-73
2022/04/09 05:32:17;;;;;;;;;;;4.50;99.90;;;;;;4973272;28;19930;-72
2022/04/09 05:34:42;;;;;;;;;;;4.50;99.90;;;;;;4971968;28;19921;-73
2022/04/09 05:37:08;;;;;;;;;;;4.50;99.90;;;;;;4965082;28;19921;-74
2022/04/09 05:39:34;;;;;;;;;;;4.60;99.90;;;;;;4961483;28;20062;-73
2022/04/09 05:42:00;;;;;;;;;;;4.70;99.90;;;;;;4972493;28;19914;-73
2022/04/09 05:44:26;;;;;;;;;;;4.80;99.90;;;;;;4972175;28;20253;-74
2022/04/09 05:46:51;;;;;;;;;;;5.10;99.90;;;;;;5025786;28;19912;-73
2022/04/09 05:49:18;;;;;;;;;;;5.20;99.90;;;;;;5073263;28;19966;-73
2022/04/09 05:51:43;;;;;;;;;;;5.20;99.90;;;;;;5056544;28;19920;-73
2022/04/09 05:54:09;;;;;;;;;;;5.10;99.90;;;;;;5072684;28;20273;-73
2022/04/09 05:56:36;;;;;;;;;;;5.00;99.90;;;;;;5067633;28;19916;-73
2022/04/09 05:59:02;;;;;;;;;;;4.90;99.90;;;;;;5068523;28;19966;-73
2022/04/09 06:01:27;;;;;;;;;;;4.90;99.90;;;;;;5068277;28;20263;-73
2022/04/09 06:03:54;;;;;;;;;;;4.80;99.90;;;;;;5068580;28;19921;-73
2022/04/09 06:06:19;;;;;;;;;;;4.70;99.90;;;;;;5054835;28;19916;-73
2022/04/09 06:08:45;;;;;;;;;;;4.60;99.90;;;;;;5071785;28;19950;-73
2022/04/09 06:11:11;;;;;;;;;;;4.60;99.90;;;;;;5066681;28;19967;-73
2022/04/09 06:13:36;;;;;;;;;;;4.70;99.90;;;;;;5066680;28;19916;-72
2022/04/09 06:16:06;;;;;;;;;;;4.70;99.90;;;;;;5037399;28;19925;-73
2022/04/09 06:18:31;;;;;;;;;;;4.80;99.90;;;;;;5067185;28;19917;-72
2022/04/09 06:20:57;;;;;;;;;;;4.80;99.90;;;;;;5067898;28;19977;-73
2022/04/09 06:23:22;;;;;;;;;;;5.00;99.90;;;;;;5070903;28;20340;-73
2022/04/09 06:25:48;;;;;;;;;;;5.40;99.90;;;;;;5073392;28;19912;-73
2022/04/09 06:28:14;;;;;;;;;;;5.80;99.90;;;;;;5056342;28;19912;-73
2022/04/09 06:30:39;;;;;;;;;;;6.10;99.90;;;;;;5072096;28;19916;-71
2022/04/09 06:33:05;;;;;;;;;;;6.10;99.90;;;;;;5073522;28;20215;-72
2022/04/09 06:35:30;;;;;;;;;;;6.00;99.90;;;;;;5072898;28;19919;-73
2022/04/09 06:37:56;;;;;;;;;;;5.90;99.90;;;;;;5073807;28;19927;-73
2022/04/09 06:40:22;;;;;;;;;;;5.70;99.90;;;;;;5065024;28;19916;-73
2022/04/09 06:42:47;;;;;;;;;;;5.80;99.90;;;;;;5065873;28;19952;-72
2022/04/09 06:45:15;;;;;;;;;;;5.80;99.90;;;;;;5057528;28;19919;-73
2022/04/09 06:47:40;;;;;;;;;;;6.10;99.90;;;;;;5073946;28;19912;-72
2022/04/09 06:50:10;;;;;;;;;;;6.60;99.90;;;;;;5073875;28;19995;-73
2022/04/09 06:52:36;;;;;;;;;;;7.30;99.90;;;;;;5056305;28;20369;-73
2022/04/09 06:55:02;;;;;;;;;;;7.60;99.90;;;;;;5074109;28;19917;-73
2022/04/09 06:57:28;;;;;;;;;;;7.40;99.90;;;;;;5073870;28;19975;-73
2022/04/09 06:59:57;;;;;;;;;;;7.20;99.90;;;;;;5071002;28;20001;-74
2022/04/09 07:02:23;;;;;;;;;;;7.40;99.90;;;;;;5073724;28;20231;-74
2022/04/09 07:04:49;;;;;;;;;;;7.90;99.90;;;;;;5073408;28;19916;-73
2022/04/09 07:07:21;;;;;;;;;;;8.30;99.90;;;;;;5074499;28;20015;-73
2022/04/09 07:09:47;;;;;;;;;;;8.80;99.90;;;;;;5054495;28;19916;-73
2022/04/09 07:12:13;;;;;;;;;;;8.80;99.90;;;;;;5068719;28;20014;-73
2022/04/09 07:14:39;;;;;;;;;;;9.20;99.90;;;;;;5050907;28;19921;-74
2022/04/09 07:17:05;;;;;;;;;;;9.00;99.90;;;;;;5072820;28;19942;-74
2022/04/09 07:19:30;;;;;;;;;;;8.40;99.90;;;;;;5069403;28;19957;-74
2022/04/09 07:21:56;;;;;;;;;;;7.80;99.90;;;;;;5071410;28;19917;-74
2022/04/09 07:24:22;;;;;;;;;;;7.30;99.90;;;;;;5052538;28;19967;-74
2022/04/09 07:26:47;;;;;;;;;;;7.20;99.90;;;;;;5068305;28;20379;-74
2022/04/09 07:29:13;;;;;;;;;;;7.70;99.90;;;;;;5073101;28;19922;-74
2022/04/09 07:31:38;;;;;;;;;;;8.20;99.90;;;;;;5038739;28;20007;-73
2022/04/09 07:34:04;;;;;;;;;;;8.70;99.90;;;;;;5055102;28;19927;-74
2022/04/09 07:36:29;;;;;;;;;;;9.00;99.90;;;;;;5071761;28;20341;-73
2022/04/09 07:38:55;;;;;;;;;;;8.50;99.90;;;;;;5055415;28;19916;-72
2022/04/09 07:41:21;;;;;;;;;;;7.10;99.90;;;;;;5054111;28;20278;-73
2022/04/09 07:43:47;;;;;;;;;;;6.70;99.90;;;;;;5066309;28;19999;-74
2022/04/09 07:46:19;;;;;;;;;;;6.60;99.90;;;;;;5056761;28;20245;-74
2022/04/09 07:48:45;;;;;;;;;;;6.50;99.90;;;;;;5067380;28;19918;-73
2022/04/09 07:51:10;;;;;;;;;;;6.40;99.90;;;;;;5075467;28;19921;-73
2022/04/09 07:53:36;;;;;;;;;;;6.30;99.90;;;;;;5076668;28;19932;-74
2022/04/09 07:56:02;;;;;;;;;;;6.30;99.90;;;;;;5074544;28;19912;-73
2022/04/09 07:58:27;;;;;;;;;;;6.30;99.90;;;;;;5077522;28;19970;-74
2022/04/09 08:00:53;;;;;;;;;;;6.90;99.90;;;;;;5059028;28;19920;-73
2022/04/09 08:03:18;;;;;;;;;;;7.90;99.90;;;;;;5075585;28;19920;-73
2022/04/09 08:05:44;;;;;;;;;;;8.50;99.90;;;;;;5056834;28;19920;-74
2022/04/09 08:08:09;;;;;;;;;;;8.90;99.90;;;;;;5076840;28;20196;-73
2022/04/09 08:10:37;;;;;;;;;;;8.90;99.90;;;;;;5076303;28;19975;-73
2022/04/09 08:13:02;;;;;;;;;;;9.30;99.90;;;;;;5076235;28;20310;-74
2022/04/09 08:15:28;;;;;;;;;;;8.90;99.90;;;;;;5076704;28;19948;-74
2022/04/09 08:17:56;;;;;;;;;;;8.90;99.90;;;;;;5066874;28;19916;-74
2022/04/09 08:20:21;;;;;;;;;;;7.90;99.90;;;;;;5076865;28;20358;-73
2022/04/09 08:22:47;;;;;;;;;;;8.10;99.90;;;;;;5075170;28;20003;-74
2022/04/09 08:25:13;;;;;;;;;;;8.10;99.90;;;;;;5058088;28;19921;-73
2022/04/09 08:27:39;;;;;;;;;;;7.70;99.90;;;;;;5057866;28;19923;-74
2022/04/09 08:30:06;;;;;;;;;;;8.10;99.90;;;;;;5075572;28;19951;-73
2022/04/09 08:32:32;;;;;;;;;;;8.30;99.90;;;;;;5073071;28;19962;-72
2022/04/09 08:34:57;;;;;;;;;;;8.10;99.90;;;;;;5075493;28;19912;-73
2022/04/09 08:37:23;;;;;;;;;;;8.30;99.90;;;;;;5075815;28;19932;-73
2022/04/09 08:39:49;;;;;;;;;;;7.90;99.90;;;;;;5057128;28;19927;-73
2022/04/09 08:42:15;;;;;;;;;;;6.20;99.90;;;;;;5075377;28;19912;-71
2022/04/09 08:44:41;;;;;;;;;;;6.00;99.90;;;;;;5076418;28;20211;-73
2022/04/09 08:47:07;;;;;;;;;;;5.90;99.90;;;;;;5074623;28;19991;-73
2022/04/09 08:49:36;;;;;;;;;;;5.80;99.90;;;;;;5075121;28;19924;-73
2022/04/09 08:52:02;;;;;;;;;;;5.90;99.90;;;;;;5074766;28;19912;-73
2022/04/09 08:54:29;;;;;;;;;;;6.00;99.90;;;;;;5076300;28;19923;-73
2022/04/09 08:56:54;;;;;;;;;;;6.10;99.90;;;;;;5065647;28;19920;-73
2022/04/09 08:59:20;;;;;;;;;;;6.40;99.90;;;;;;5056337;28;19919;-74
2022/04/09 09:01:45;;;;;;;;;;;6.90;99.90;;;;;;5057777;28;19913;-73
2022/04/09 09:04:11;;;;;;;;;;;7.30;99.90;;;;;;5073196;28;19913;-74
2022/04/09 09:06:40;;;;;;;;;;;7.30;99.90;;;;;;5041821;28;19916;-74
2022/04/09 09:09:06;;;;;;;;;;;7.50;99.90;;;;;;5073623;28;20094;-74
2022/04/09 09:11:48;;;;;;;;;;;7.50;99.90;;;;;;5074127;28;20011;-72
2022/04/09 09:14:33;;;;;;;;;;;7.60;99.90;;;;;;5057938;28;19920;-73
2022/04/09 09:16:59;;;;;;;;;;;7.30;99.90;;;;;;5075106;28;19966;-72
2022/04/09 09:19:43;;;;;;;;;;;7.20;99.90;;;;;;5075170;28;19921;-73
2022/04/09 09:22:09;;;;;;;;;;;7.10;99.90;;;;;;5056919;28;19913;-73
2022/04/09 09:24:35;;;;;;;;;;;7.00;99.90;;;;;;5075469;28;19920;-73
2022/04/09 09:27:01;;;;;;;;;;;6.90;99.90;;;;;;5075735;28;20282;-73
2022/04/09 09:29:28;;;;;;;;;;;6.80;99.90;;;;;;5073983;28;19912;-73
2022/04/09 09:31:58;;;;;;;;;;;6.70;99.90;;;;;;5074192;28;19997;-73
2022/04/09 09:34:24;;;;;;;;;;;6.80;99.90;;;;;;5073889;28;19948;-73
2022/04/09 09:36:50;;;;;;;;;;;7.20;99.90;;;;;;5056843;28;20521;-73
2022/04/09 09:39:17;;;;;;;;;;;7.90;99.90;;;;;;5074558;28;19920;-75
2022/04/09 09:41:55;;;;;;;;;;;8.60;99.90;;;;;;5074667;28;19917;-73
2022/04/09 09:44:24;;;;;;;;;;;9.20;99.90;;;;;;5073530;28;19912;-74
2022/04/09 09:46:51;;;;;;;;;;;9.70;99.90;;;;;;5074861;28;19995;-74
2022/04/09 09:49:17;;;;;;;;;;;10.10;99.90;;;;;;5074335;28;19920;-75
2022/04/09 09:51:43;;;;;;;;;;;10.20;99.90;;;;;;5056733;28;19923;-74
2022/04/09 09:54:10;;;;;;;;;;;10.20;99.90;;;;;;5055342;28;19920;-74
2022/04/09 09:56:36;;;;;;;;;;;10.00;99.90;;;;;;5066871;28;19960;-74
2022/04/09 09:59:03;;;;;;;;;;;9.80;99.90;;;;;;5063023;28;19948;-74
2022/04/09 10:01:28;;;;;;;;;;;10.10;99.90;;;;;;5073631;28;19970;-73
2022/04/09 10:03:54;;;;;;;;;;;10.10;99.90;;;;;;5055925;28;19920;-73
2022/04/09 10:06:23;;;;;;;;;;;9.40;99.90;;;;;;5057085;28;20204;-73
2022/04/09 10:08:48;;;;;;;;;;;8.80;99.90;;;;;;5073882;28;19958;-73
2022/04/09 10:11:16;;;;;;;;;;;8.20;99.90;;;;;;5072397;28;19928;-73
2022/04/09 10:13:43;;;;;;;;;;;7.70;99.90;;;;;;5055568;28;19921;-74
2022/04/09 10:16:10;;;;;;;;;;;7.50;99.90;;;;;;5073878;28;19967;-74
2022/04/09 10:18:36;;;;;;;;;;;7.30;99.90;;;;;;5054188;28;19913;-74
2022/04/09 10:21:02;;;;;;;;;;;7.20;99.90;;;;;;5073244;28;19954;-74
2022/04/09 10:23:32;;;;;;;;;;;7.20;99.90;;;;;;5073228;28;19931;-73
2022/04/09 10:25:58;;;;;;;;;;;7.40;99.90;;;;;;5057371;28;19952;-73
2022/04/09 10:28:34;;;;;;;;;;;8.10;99.90;;;;;;5071467;28;20259;-73
2022/04/09 10:31:00;;;;;;;;;;;8.70;99.90;;;;;;5054510;28;19913;-73
2022/04/09 10:33:28;;;;;;;;;;;8.70;99.90;;;;;;5071235;28;19923;-73
2022/04/09 10:35:55;;;;;;;;;;;8.70;99.90;;;;;;5072373;28;19966;-73
2022/04/09 10:38:22;;;;;;;;;;;9.30;99.90;;;;;;5056560;28;19969;-73
2022/04/09 10:40:49;;;;;;;;;;;9.60;99.90;;;;;;5056453;28;19966;-74
2022/04/09 10:43:20;;;;;;;;;;;9.80;99.90;;;;;;5073372;28;19917;-73
2022/04/09 10:46:08;;;;;;;;;;;9.60;99.90;;;;;;5073042;28;20211;-73
2022/04/09 10:48:39;;;;;;;;;;;9.10;99.90;;;;;;5071670;28;19965;-72
2022/04/09 10:51:06;;;;;;;;;;;9.40;99.90;;;;;;5072932;28;19916;-73
2022/04/09 10:53:33;;;;;;;;;;;9.60;99.90;;;;;;5074494;28;20000;-74
2022/04/09 10:56:20;;;;;;;;;;;10.20;99.90;;;;;;5073991;28;19919;-73
2022/04/09 10:58:58;;;;;;;;;;;10.40;99.90;;;;;;5063725;28;19913;-74
2022/04/09 11:01:42;;;;;;;;;;;10.20;99.90;;;;;;5047120;28;20003;-73
2022/04/09 11:04:26;;;;;;;;;;;9.00;99.90;;;;;;5073088;28;19912;-74
2022/04/09 11:07:02;;;;;;;;;;;6.80;99.90;;;;;;5074171;28;19923;-73
2022/04/09 11:09:43;;;;;;;;;;;5.70;99.90;;;;;;5072658;28;19920;-73
2022/04/09 11:12:08;;;;;;;;;;;5.70;99.90;;;;;;5072520;28;20311;-73
2022/04/09 11:14:47;;;;;;;;;;;5.80;99.90;;;;;;5073697;28;19916;-73
2022/04/09 11:17:14;;;;;;;;;;;5.90;99.90;;;;;;5074196;28;19923;-73
2022/04/09 11:19:39;;;;;;;;;;;6.20;99.90;;;;;;5057497;28;19912;-73
2022/04/09 11:22:05;;;;;;;;;;;6.50;99.90;;;;;;5059024;28;19927;-73
2022/04/09 11:24:37;;;;;;;;;;;6.70;99.90;;;;;;5075368;28;19920;-73
2022/04/09 11:27:03;;;;;;;;;;;7.40;99.90;;;;;;5059419;28;19913;-73
2022/04/09 11:29:35;;;;;;;;;;;7.90;99.90;;;;;;5059893;28;19927;-72
2022/04/09 11:32:01;;;;;;;;;;;8.20;99.90;;;;;;5075208;28;19912;-73
2022/04/09 11:34:27;;;;;;;;;;;8.50;99.90;;;;;;5077465;28;19913;-73
2022/04/09 11:37:11;;;;;;;;;;;8.70;99.90;;;;;;5059110;28;19917;-75
2022/04/09 11:39:40;;;;;;;;;;;8.30;99.90;;;;;;5077822;28;19913;-73
2022/04/09 11:42:06;;;;;;;;;;;8.10;99.90;;;;;;5076278;28;19940;-74
2022/04/09 11:44:32;;;;;;;;;;;8.20;99.90;;;;;;5077456;28;19920;-73
2022/04/09 11:46:58;;;;;;;;;;;8.00;99.90;;;;;;5077078;28;19919;-73
2022/04/09 11:49:33;;;;;;;;;;;8.10;99.90;;;;;;5077252;28;19924;-73
2022/04/09 11:51:59;;;;;;;;;;;8.20;99.90;;;;;;5076434;28;20600;-73
2022/04/09 11:54:27;;;;;;;;;;;8.10;99.90;;;;;;5076762;28;19956;-73
2022/04/09 11:56:52;;;;;;;;;;;8.40;99.90;;;;;;5076310;28;19926;-73
2022/04/09 11:59:18;;;;;;;;;;;8.50;99.90;;;;;;5077306;28;19917;-72
2022/04/09 12:01:47;;;;;;;;;;;8.60;99.90;;;;;;5050833;28;19916;-73
2022/04/09 12:04:13;;;;;;;;;;;8.70;99.90;;;;;;5068451;28;19921;-72
2022/04/09 12:06:39;;;;;;;;;;;8.00;99.90;;;;;;5057750;28;20007;-72
2022/04/09 12:09:05;;;;;;;;;;;7.00;99.90;;;;;;5076876;28;20032;-73
2022/04/09 12:11:30;;;;;;;;;;;6.60;99.90;;;;;;5077002;28;19920;-72
2022/04/09 12:14:07;;;;;;;;;;;6.60;99.90;;;;;;5050719;28;19951;-73
2022/04/09 12:16:36;;;;;;;;;;;6.70;99.90;;;;;;5077369;28;19938;-72
2022/04/09 12:19:04;;;;;;;;;;;6.60;99.90;;;;;;5059730;28;20015;-72
2022/04/09 12:21:31;;;;;;;;;;;6.80;99.90;;;;;;5073422;28;19919;-73
2022/04/09 12:24:00;;;;;;;;;;;7.00;99.90;;;;;;5075587;28;19930;-73
2022/04/09 12:26:27;;;;;;;;;;;7.40;99.90;;;;;;5076186;28;20656;-72
2022/04/09 12:29:04;;;;;;;;;;;8.10;99.90;;;;;;5076770;28;19908;-73
2022/04/09 12:31:30;;;;;;;;;;;8.30;99.90;;;;;;5075249;28;20295;-73
2022/04/09 12:33:59;;;;;;;;;;;8.40;99.90;;;;;;5070446;28;19919;-73
2022/04/09 12:36:25;;;;;;;;;;;8.40;99.90;;;;;;5071941;28;19955;-73
2022/04/09 12:38:50;;;;;;;;;;;8.10;99.90;;;;;;5074480;28;19951;-73
2022/04/09 12:41:16;;;;;;;;;;;7.80;99.90;;;;;;5073128;28;19919;-73
2022/04/09 12:43:42;;;;;;;;;;;7.70;99.90;;;;;;5075438;28;19970;-73
2022/04/09 12:46:12;;;;;;;;;;;7.60;99.90;;;;;;5074948;28;20335;-73
2022/04/09 12:48:42;;;;;;;;;;;8.00;99.90;;;;;;5075859;28;19920;-72
2022/04/09 12:51:08;;;;;;;;;;;8.20;99.90;;;;;;5075318;28;19920;-73
2022/04/09 12:53:34;;;;;;;;;;;8.30;99.90;;;;;;5073987;28;19929;-73
2022/04/09 12:56:03;;;;;;;;;;;8.40;99.90;;;;;;5074172;28;20018;-73
2022/04/09 12:58:28;;;;;;;;;;;8.80;99.90;;;;;;5073059;28;19920;-74
2022/04/09 13:00:54;;;;;;;;;;;8.60;99.90;;;;;;5073150;28;19923;-73
2022/04/09 13:03:19;;;;;;;;;;;8.40;99.90;;;;;;5058208;28;19916;-73
2022/04/09 13:05:45;;;;;;;;;;;8.00;99.90;;;;;;5075978;28;20204;-73
2022/04/09 13:08:11;;;;;;;;;;;7.60;99.90;;;;;;5075259;28;19913;-73
2022/04/09 13:10:36;;;;;;;;;;;7.50;99.90;;;;;;5075739;28;19931;-73
2022/04/09 13:13:04;;;;;;;;;;;7.90;99.90;;;;;;5066953;28;19923;-73
2022/04/09 13:15:31;;;;;;;;;;;8.20;99.90;;;;;;5075557;28;19951;-73
2022/04/09 13:17:57;;;;;;;;;;;8.20;99.90;;;;;;5075703;28;19912;-73
2022/04/09 13:20:22;;;;;;;;;;;8.10;99.90;;;;;;5075802;28;20362;-74
2022/04/09 13:22:48;;;;;;;;;;;8.20;99.90;;;;;;5074322;28;19951;-73
2022/04/09 13:25:15;;;;;;;;;;;8.60;99.90;;;;;;5074775;28;19994;-73
2022/04/09 13:27:44;;;;;;;;;;;9.10;99.90;;;;;;5074164;28;19916;-73
2022/04/09 13:30:13;;;;;;;;;;;9.60;99.90;;;;;;5074936;28;19970;-73
2022/04/09 13:32:38;;;;;;;;;;;9.70;99.90;;;;;;5055906;28;19959;-73
2022/04/09 13:35:04;;;;;;;;;;;9.30;99.90;;;;;;5072940;28;20226;-74
2022/04/09 13:37:30;;;;;;;;;;;9.20;99.90;;;;;;5072742;28;19921;-73
2022/04/09 13:39:55;;;;;;;;;;;9.10;99.90;;;;;;5075370;28;19912;-73
2022/04/09 13:42:21;;;;;;;;;;;9.10;99.90;;;;;;5055758;28;19920;-74
2022/04/09 13:44:47;;;;;;;;;;;9.20;99.90;;;;;;5073202;28;19917;-73
2022/04/09 13:47:12;;;;;;;;;;;9.40;99.90;;;;;;5074129;28;20246;-73
2022/04/09 13:49:38;;;;;;;;;;;9.30;99.90;;;;;;5074326;28;20315;-73
2022/04/09 13:52:04;;;;;;;;;;;9.00;99.90;;;;;;5055933;28;19917;-73
2022/04/09 13:54:31;;;;;;;;;;;9.30;99.90;;;;;;5056517;28;20360;-73
2022/04/09 13:56:56;;;;;;;;;;;9.40;99.90;;;;;;5053297;28;19912;-73
2022/04/09 13:59:22;;;;;;;;;;;9.60;99.90;;;;;;5072607;28;20531;-73
2022/04/09 14:01:48;;;;;;;;;;;9.80;99.90;;;;;;5072761;28;20331;-72
2022/04/09 14:04:13;;;;;;;;;;;9.60;99.90;;;;;;5073199;28;19920;-73
2022/04/09 14:06:39;;;;;;;;;;;9.50;99.90;;;;;;5057666;28;19917;-74
2022/04/09 14:09:04;;;;;;;;;;;9.50;99.90;;;;;;5056512;28;19927;-74
2022/04/09 14:11:30;;;;;;;;;;;8.90;99.90;;;;;;5074141;28;19943;-73
2022/04/09 14:13:57;;;;;;;;;;;8.60;99.90;;;;;;5063806;28;19925;-72
2022/04/09 14:16:22;;;;;;;;;;;8.40;99.90;;;;;;5056709;28;19918;-74
2022/04/09 14:18:48;;;;;;;;;;;8.30;99.90;;;;;;5074735;28;19916;-73
2022/04/09 14:21:14;;;;;;;;;;;8.10;99.90;;;;;;5066380;28;20842;-73
2022/04/09 14:23:39;;;;;;;;;;;8.00;99.90;;;;;;5074937;28;19941;-73
2022/04/09 14:26:05;;;;;;;;;;;8.40;99.90;;;;;;5071204;28;20245;-73
2022/04/09 14:28:31;;;;;;;;;;;8.40;99.90;;;;;;5070049;28;19912;-73
2022/04/09 14:30:56;;;;;;;;;;;8.80;99.90;;;;;;5068746;28;19913;-72